createdAt,value
2017-05-24T00:00:11.591Z,34.78
2017-05-24T00:01:21.868Z,34.76
2017-05-24T00:02:32.150Z,34.78
2017-05-24T00:03:42.138Z,34.86
2017-05-24T00:04:52.117Z,34.66
2017-05-24T00:06:02.337Z,34.78
2017-05-24T00:07:12.621Z,34.48
2017-05-24T00:08:22.901Z,34.58
2017-05-24T00:09:32.877Z,34.58
2017-05-24T00:10:43.214Z,34.58
2017-05-24T00:11:53.745Z,34.68
2017-05-24T00:13:04.037Z,34.29
2017-05-24T00:14:14.321Z,34.29
2017-05-24T00:15:24.603Z,34.47
2017-05-24T00:16:34.572Z,34.28
2017-05-24T00:17:44.791Z,34.38
2017-05-24T00:18:54.761Z,34.38
2017-05-24T00:20:05.050Z,34.47
2017-05-24T00:21:15.330Z,34.58
2017-05-24T00:22:25.619Z,34.29
2017-05-24T00:23:35.535Z,34.47
2017-05-24T00:24:45.814Z,34.38
2017-05-24T00:25:55.791Z,34.47
2017-05-24T00:27:06.065Z,34.18
2017-05-24T00:28:16.348Z,34.28
2017-05-24T00:29:26.569Z,34.47
2017-05-24T00:30:36.855Z,34.38
2017-05-24T00:31:46.822Z,34.56
2017-05-24T00:32:57.105Z,34.28
2017-05-24T00:34:07.431Z,34.08
2017-05-24T00:35:18.219Z,34.08
2017-05-24T00:36:28.496Z,34.1
2017-05-24T00:37:38.778Z,34.28
2017-05-24T00:38:48.751Z,34.28
2017-05-24T00:39:58.724Z,34.18
2017-05-24T00:41:09.270Z,34.28
2017-05-24T00:42:19.545Z,34.28
2017-05-24T00:43:29.826Z,34.28
2017-05-24T00:44:39.800Z,34.38
2017-05-24T00:45:50.093Z,34.28
2017-05-24T00:47:00.625Z,34.18
2017-05-24T00:48:10.915Z,34.18
2017-05-24T00:49:20.893Z,34.08
2017-05-24T00:50:30.923Z,34.28
2017-05-24T00:51:41.202Z,34.38
2017-05-24T00:52:51.741Z,34.28
2017-05-24T00:54:02.041Z,34.28
2017-05-24T00:55:11.999Z,34.38
2017-05-24T00:56:22.891Z,34.28
2017-05-24T00:57:32.861Z,33.7
2017-05-24T00:58:42.773Z,33.98
2017-05-24T00:59:53.049Z,33.89
2017-05-24T01:01:02.706Z,33.8
2017-05-24T01:02:12.677Z,33.8
2017-05-24T01:03:22.643Z,33.89
2017-05-24T01:04:33.175Z,33.98
2017-05-24T01:05:43.470Z,33.98
2017-05-24T01:06:53.748Z,33.98
2017-05-24T01:08:04.037Z,34.18
2017-05-24T01:09:14.007Z,34.08
2017-05-24T01:10:24.528Z,34.08
2017-05-24T01:11:34.812Z,33.98
2017-05-24T01:12:45.099Z,34.08
2017-05-24T01:13:55.160Z,33.98
2017-05-24T01:15:05.445Z,33.98
2017-05-24T01:16:15.990Z,33.98
2017-05-24T01:17:26.269Z,33.8
2017-05-24T01:18:36.552Z,33.89
2017-05-24T01:19:46.835Z,33.7
2017-05-24T01:20:57.127Z,33.7
2017-05-24T01:22:07.650Z,33.31
2017-05-24T01:23:17.933Z,33.6
2017-05-24T01:24:27.921Z,33.22
2017-05-24T01:25:38.200Z,33.5
2017-05-24T01:26:48.476Z,33.4
2017-05-24T01:27:58.697Z,33.31
2017-05-24T01:29:08.985Z,33.31
2017-05-24T01:30:19.264Z,33.12
2017-05-24T01:31:29.592Z,33.5
2017-05-24T01:32:39.875Z,33.22
2017-05-24T01:33:50.421Z,33.22
2017-05-24T01:35:00.711Z,33.2
2017-05-24T01:36:10.995Z,33.4
2017-05-24T01:37:20.967Z,33.5
2017-05-24T01:38:30.943Z,33.31
2017-05-24T01:39:41.167Z,33.02
2017-05-24T01:40:51.455Z,33.1
2017-05-24T01:42:01.731Z,33.2
2017-05-24T01:43:12.001Z,33.48
2017-05-24T01:44:22.329Z,33.4
2017-05-24T01:45:32.569Z,33.12
2017-05-24T01:46:42.533Z,33.48
2017-05-24T01:47:52.500Z,33.29
2017-05-24T01:49:02.474Z,33.29
2017-05-24T01:50:12.450Z,33.39
2017-05-24T01:51:22.971Z,33.58
2017-05-24T01:52:32.943Z,33.02
2017-05-24T01:53:43.227Z,33.1
2017-05-24T01:54:53.515Z,32.91
2017-05-24T01:56:03.798Z,33.12
2017-05-24T01:57:14.337Z,33.39
2017-05-24T01:58:24.614Z,33.39
2017-05-24T01:59:34.591Z,33.4
2017-05-24T02:00:44.867Z,33.39
2017-05-24T02:01:55.154Z,33.22
2017-05-24T02:03:05.391Z,33.1
2017-05-24T02:04:15.667Z,33.12
2017-05-24T02:05:25.968Z,33.1
2017-05-24T02:06:36.242Z,33.2
2017-05-24T02:07:45.895Z,33.1
2017-05-24T02:08:56.478Z,33.12
2017-05-24T02:10:06.154Z,32.81
2017-05-24T02:11:16.442Z,33.12
2017-05-24T02:12:26.718Z,32.91
2017-05-24T02:13:36.688Z,32.91
2017-05-24T02:14:46.908Z,33.2
2017-05-24T02:15:56.882Z,33.2
2017-05-24T02:17:06.853Z,33
2017-05-24T02:18:17.135Z,33
2017-05-24T02:19:27.415Z,32.73
2017-05-24T02:20:37.952Z,32.71
2017-05-24T02:21:48.228Z,32.81
2017-05-24T02:22:58.517Z,32.81
2017-05-24T02:24:08.807Z,32.91
2017-05-24T02:25:18.776Z,32.71
2017-05-24T02:26:29.359Z,32.91
2017-05-24T02:27:39.641Z,32.71
2017-05-24T02:28:49.929Z,32.81
2017-05-24T02:30:00.224Z,32.81
2017-05-24T02:31:10.196Z,32.62
2017-05-24T02:32:20.727Z,32.81
2017-05-24T02:33:31.002Z,32.81
2017-05-24T02:34:41.281Z,32.71
2017-05-24T02:35:51.562Z,33
2017-05-24T02:37:01.537Z,33
2017-05-24T02:38:11.759Z,32.43
2017-05-24T02:39:21.103Z,32.62
2017-05-24T02:40:31.063Z,32.52
2017-05-24T02:41:41.345Z,33
2017-05-24T02:42:51.309Z,32.43
2017-05-24T02:44:01.844Z,32.62
2017-05-24T02:45:11.810Z,32.52
2017-05-24T02:46:22.085Z,32.62
2017-05-24T02:47:32.361Z,32.43
2017-05-24T02:48:42.654Z,32.43
2017-05-24T02:49:53.182Z,32.52
2017-05-24T02:51:03.471Z,32.71
2017-05-24T02:52:13.754Z,32.43
2017-05-24T02:53:24.053Z,32.52
2017-05-24T02:54:34.343Z,32.33
2017-05-24T02:55:44.557Z,32.33
2017-05-24T02:56:54.224Z,32.23
2017-05-24T02:58:04.513Z,32.33
2017-05-24T02:59:14.476Z,32.43
2017-05-24T03:00:24.181Z,32.33
2017-05-24T03:01:34.716Z,32.43
2017-05-24T03:02:45.006Z,32.33
2017-05-24T03:03:55.293Z,32.23
2017-05-24T03:05:05.261Z,32.33
2017-05-24T03:06:15.542Z,32.23
2017-05-24T03:07:26.073Z,32.23
2017-05-24T03:08:36.350Z,32.23
2017-05-24T03:09:46.634Z,32.14
2017-05-24T03:10:56.915Z,32.14
2017-05-24T03:12:07.198Z,32.33
2017-05-24T03:13:17.724Z,32.14
2017-05-24T03:14:27.703Z,32.33
2017-05-24T03:15:37.987Z,32.14
2017-05-24T03:16:48.312Z,32.23
2017-05-24T03:17:58.597Z,32.23
2017-05-24T03:19:09.123Z,32.14
2017-05-24T03:20:19.411Z,32.14
2017-05-24T03:21:29.699Z,32.14
2017-05-24T03:22:39.976Z,32.33
2017-05-24T03:23:49.942Z,32.23
2017-05-24T03:25:00.479Z,32.14
2017-05-24T03:26:10.830Z,32.14
2017-05-24T03:27:21.134Z,32.14
2017-05-24T03:28:31.410Z,31.94
2017-05-24T03:29:41.071Z,32.04
2017-05-24T03:30:51.597Z,32.04
2017-05-24T03:32:01.885Z,32.14
2017-05-24T03:33:11.543Z,32.14
2017-05-24T03:34:21.824Z,32.14
2017-05-24T03:35:32.106Z,32.04
2017-05-24T03:36:42.632Z,32.04
2017-05-24T03:37:52.912Z,32.14
2017-05-24T03:39:03.206Z,32.14
2017-05-24T03:40:13.494Z,31.94
2017-05-24T03:41:23.457Z,31.94
2017-05-24T03:42:33.979Z,32.04
2017-05-24T03:43:44.265Z,32.04
2017-05-24T03:44:54.254Z,32.04
2017-05-24T03:46:04.549Z,32.04
2017-05-24T03:47:14.833Z,32.14
2017-05-24T03:48:25.386Z,32.04
2017-05-24T03:49:35.674Z,32.04
2017-05-24T03:50:45.950Z,32.04
2017-05-24T03:51:55.927Z,31.94
2017-05-24T03:53:06.231Z,31.94
2017-05-24T03:54:16.448Z,31.94
2017-05-24T03:55:26.766Z,32.04
2017-05-24T03:56:36.431Z,31.94
2017-05-24T03:57:46.705Z,31.94
2017-05-24T03:58:56.998Z,31.94
2017-05-24T04:00:07.523Z,31.75
2017-05-24T04:01:17.801Z,31.75
2017-05-24T04:02:27.770Z,31.94
2017-05-24T04:03:38.064Z,31.75
2017-05-24T04:04:48.035Z,31.56
2017-05-24T04:05:58.265Z,31.56
2017-05-24T04:07:08.237Z,31.56
2017-05-24T04:08:18.525Z,31.65
2017-05-24T04:09:28.815Z,31.56
2017-05-24T04:10:39.103Z,31.37
2017-05-24T04:11:49.648Z,31.46
2017-05-24T04:12:59.931Z,31.37
2017-05-24T04:14:10.226Z,31.27
2017-05-24T04:15:20.505Z,31.27
2017-05-24T04:16:30.474Z,31.17
2017-05-24T04:17:41.057Z,30.98
2017-05-24T04:18:51.345Z,31.17
2017-05-24T04:20:01.632Z,31.17
2017-05-24T04:21:11.903Z,31.07
2017-05-24T04:22:22.185Z,31.07
2017-05-24T04:23:32.709Z,30.88
2017-05-24T04:24:42.995Z,30.88
2017-05-24T04:25:53.267Z,30.88
2017-05-24T04:27:03.556Z,30.88
2017-05-24T04:28:13.531Z,30.79
2017-05-24T04:29:24.065Z,30.69
2017-05-24T04:30:34.420Z,30.69
2017-05-24T04:31:44.709Z,30.49
2017-05-24T04:32:54.989Z,30.69
2017-05-24T04:34:05.275Z,30.49
2017-05-24T04:35:15.809Z,30.59
2017-05-24T04:36:26.082Z,30.4
2017-05-24T04:37:36.359Z,30.11
2017-05-24T04:38:46.649Z,30.59
2017-05-24T04:39:56.628Z,30.22
2017-05-24T04:41:07.165Z,30.11
2017-05-24T04:42:17.444Z,30.11
2017-05-24T04:43:27.734Z,30.21
2017-05-24T04:44:37.707Z,30.11
2017-05-24T04:45:47.683Z,30.21
2017-05-24T04:46:57.921Z,30.11
2017-05-24T04:48:08.215Z,29.91
2017-05-24T04:49:18.499Z,29.91
2017-05-24T04:50:28.780Z,29.91
2017-05-24T04:51:38.742Z,29.91
2017-05-24T04:52:49.270Z,29.91
2017-05-24T04:53:59.243Z,29.82
2017-05-24T04:55:09.522Z,29.53
2017-05-24T04:56:19.803Z,29.82
2017-05-24T04:57:30.074Z,29.63
2017-05-24T04:58:40.298Z,29.72
2017-05-24T04:59:50.569Z,29.91
2017-05-24T05:01:00.851Z,29.72
2017-05-24T05:02:11.144Z,29.43
2017-05-24T05:03:21.113Z,29.53
2017-05-24T05:04:31.337Z,29.72
2017-05-24T05:05:41.626Z,29.43
2017-05-24T05:06:51.600Z,29.53
2017-05-24T05:08:00.953Z,29.53
2017-05-24T05:09:11.239Z,29.53
2017-05-24T05:10:21.784Z,29.34
2017-05-24T05:11:31.749Z,29.34
2017-05-24T05:12:42.027Z,29.43
2017-05-24T05:13:52.326Z,29.34
2017-05-24T05:15:02.608Z,29.34
2017-05-24T05:16:12.820Z,29.24
2017-05-24T05:17:23.113Z,29.24
2017-05-24T05:18:33.410Z,29.63
2017-05-24T05:19:43.696Z,29.24
2017-05-24T05:20:53.995Z,29.05
2017-05-24T05:22:04.217Z,29.05
2017-05-24T05:23:14.180Z,29.24
2017-05-24T05:24:24.463Z,29.14
2017-05-24T05:25:34.747Z,29.14
2017-05-24T05:26:45.032Z,29.14
2017-05-24T05:27:55.256Z,29.14
2017-05-24T05:29:05.537Z,29.05
2017-05-24T05:30:15.842Z,29.14
2017-05-24T05:31:25.815Z,29.14
2017-05-24T05:32:35.782Z,28.85
2017-05-24T05:33:46.017Z,29.05
2017-05-24T05:34:55.985Z,28.76
2017-05-24T05:36:06.282Z,28.95
2017-05-24T05:37:16.561Z,28.95
2017-05-24T05:38:26.527Z,29.05
2017-05-24T05:39:36.737Z,29.05
2017-05-24T05:40:47.025Z,28.85
2017-05-24T05:41:57.001Z,28.85
2017-05-24T05:43:07.290Z,28.85
2017-05-24T05:44:17.267Z,28.95
2017-05-24T05:45:27.491Z,28.95
2017-05-24T05:46:37.785Z,28.95
2017-05-24T05:47:48.070Z,28.95
2017-05-24T05:48:58.056Z,28.85
2017-05-24T05:50:08.019Z,28.95
2017-05-24T05:51:18.621Z,28.56
2017-05-24T05:52:28.289Z,28.76
2017-05-24T05:53:38.570Z,28.76
2017-05-24T05:54:48.541Z,28.47
2017-05-24T05:55:58.830Z,28.66
2017-05-24T05:57:09.369Z,28.85
2017-05-24T05:58:19.651Z,28.76
2017-05-24T05:59:29.634Z,28.56
2017-05-24T06:00:39.926Z,28.76
2017-05-24T06:01:50.208Z,28.56
2017-05-24T06:03:00.741Z,28.66
2017-05-24T06:04:10.734Z,28.66
2017-05-24T06:05:20.715Z,28.37
2017-05-24T06:06:31.069Z,28.66
2017-05-24T06:07:41.351Z,28.66
2017-05-24T06:08:51.578Z,28.66
2017-05-24T06:10:01.876Z,28.76
2017-05-24T06:11:11.843Z,28.66
2017-05-24T06:12:22.123Z,28.08
2017-05-24T06:13:32.401Z,28.08
2017-05-24T06:14:42.617Z,28.47
2017-05-24T06:15:52.611Z,28.08
2017-05-24T06:17:02.581Z,28.18
2017-05-24T06:18:11.940Z,27.98
2017-05-24T06:19:22.383Z,28.28
2017-05-24T06:20:32.613Z,28.08
2017-05-24T06:21:42.896Z,27.98
2017-05-24T06:22:53.173Z,28.18
2017-05-24T06:24:03.450Z,28.47
2017-05-24T06:25:13.137Z,28.47
2017-05-24T06:26:23.669Z,28.28
2017-05-24T06:27:33.950Z,28.28
2017-05-24T06:28:43.937Z,28.28
2017-05-24T06:29:53.598Z,28.28
2017-05-24T06:31:03.890Z,28.28
2017-05-24T06:32:14.426Z,28.18
2017-05-24T06:33:24.704Z,28.28
2017-05-24T06:34:34.360Z,28.18
2017-05-24T06:35:44.343Z,28.18
2017-05-24T06:36:54.631Z,28.47
2017-05-24T06:38:05.160Z,28.28
2017-05-24T06:39:15.452Z,28.37
2017-05-24T06:40:25.426Z,28.28
2017-05-24T06:41:35.415Z,28.37
2017-05-24T06:42:45.701Z,28.37
2017-05-24T06:43:55.923Z,28.28
2017-05-24T06:45:05.896Z,28.28
2017-05-24T06:46:15.573Z,27.98
2017-05-24T06:47:25.858Z,27.98
2017-05-24T06:48:35.825Z,28.28
2017-05-24T06:49:46.056Z,27.98
2017-05-24T06:50:56.338Z,28.37
2017-05-24T06:52:06.622Z,28.37
2017-05-24T06:53:16.904Z,28.37
2017-05-24T06:54:27.192Z,28.18
2017-05-24T06:55:37.423Z,28.28
2017-05-24T06:56:47.703Z,28.08
2017-05-24T06:57:57.985Z,28.08
2017-05-24T06:59:08.274Z,28.08
2017-05-24T07:00:18.562Z,27.89
2017-05-24T07:01:28.777Z,27.98
2017-05-24T07:02:39.059Z,27.98
2017-05-24T07:03:49.358Z,27.4
2017-05-24T07:04:59.345Z,28.09
2017-05-24T07:06:09.629Z,27.98
2017-05-24T07:07:20.163Z,27.6
2017-05-24T07:08:29.829Z,27.7
2017-05-24T07:09:40.130Z,27.5
2017-05-24T07:10:50.109Z,27.6
2017-05-24T07:12:00.408Z,27.51
2017-05-24T07:13:10.941Z,27.4
2017-05-24T07:14:21.252Z,27.31
2017-05-24T07:15:31.233Z,27.61
2017-05-24T07:16:41.216Z,27.71
2017-05-24T07:17:51.194Z,27.13
2017-05-24T07:19:01.741Z,27.51
2017-05-24T07:20:12.027Z,27.23
2017-05-24T07:21:22.309Z,27.51
2017-05-24T07:22:32.591Z,27.51
2017-05-24T07:23:42.875Z,27.33
2017-05-24T07:24:53.102Z,27.33
2017-05-24T07:26:03.382Z,27.23
2017-05-24T07:27:13.670Z,27.42
2017-05-24T07:28:23.060Z,27.23
2017-05-24T07:29:33.345Z,27.23
2017-05-24T07:30:43.569Z,27.03
2017-05-24T07:31:53.606Z,27.33
2017-05-24T07:33:03.593Z,27.13
2017-05-24T07:34:13.905Z,27.13
2017-05-24T07:35:24.202Z,27.23
2017-05-24T07:36:34.113Z,27.33
2017-05-24T07:37:44.089Z,27.23
2017-05-24T07:38:54.391Z,27.23
2017-05-24T07:40:04.699Z,27.34
2017-05-24T07:41:14.739Z,27.33
2017-05-24T07:42:25.283Z,27.03
2017-05-24T07:43:35.574Z,27.44
2017-05-24T07:44:45.786Z,27.23
2017-05-24T07:45:56.095Z,27.24
2017-05-24T07:47:06.383Z,27.23
2017-05-24T07:48:16.002Z,27.04
2017-05-24T07:49:25.982Z,26.75
2017-05-24T07:50:36.270Z,26.75
2017-05-24T07:51:46.246Z,26.84
2017-05-24T07:52:56.530Z,26.86
2017-05-24T07:54:07.085Z,27.04
2017-05-24T07:55:17.053Z,27.04
2017-05-24T07:56:27.346Z,26.55
2017-05-24T07:57:37.631Z,26.86
2017-05-24T07:58:47.919Z,27.04
2017-05-24T07:59:58.449Z,26.76
2017-05-24T08:01:08.435Z,27.04
2017-05-24T08:02:18.724Z,26.86
2017-05-24T08:03:29.011Z,26.95
2017-05-24T08:04:39.049Z,26.95
2017-05-24T08:05:49.584Z,26.84
2017-05-24T08:06:59.873Z,26.76
2017-05-24T08:08:09.855Z,26.75
2017-05-24T08:09:20.157Z,26.66
2017-05-24T08:10:30.190Z,26.86
2017-05-24T08:11:40.494Z,26.76
2017-05-24T08:12:50.794Z,26.86
2017-05-24T08:14:01.075Z,26.84
2017-05-24T08:15:11.378Z,26.76
2017-05-24T08:16:21.671Z,27.04
2017-05-24T08:17:32.207Z,26.86
2017-05-24T08:18:42.499Z,26.95
2017-05-24T08:19:51.850Z,26.86
2017-05-24T08:21:02.153Z,26.76
2017-05-24T08:22:12.438Z,27.04
2017-05-24T08:23:22.725Z,26.75
2017-05-24T08:24:32.739Z,27.03
2017-05-24T08:25:43.039Z,26.76
2017-05-24T08:26:53.006Z,26.76
2017-05-24T08:28:02.979Z,26.86
2017-05-24T08:29:12.904Z,26.76
2017-05-24T08:30:23.216Z,27.04
2017-05-24T08:31:33.498Z,26.76
2017-05-24T08:32:43.487Z,27.04
2017-05-24T08:33:53.476Z,26.95
2017-05-24T08:35:03.703Z,26.76
2017-05-24T08:36:13.377Z,27.04
2017-05-24T08:37:23.674Z,26.76
2017-05-24T08:38:34.032Z,27.04
2017-05-24T08:39:43.693Z,27.04
2017-05-24T08:40:53.920Z,26.76
2017-05-24T08:42:04.204Z,26.76
2017-05-24T08:43:14.485Z,26.75
2017-05-24T08:44:24.780Z,26.84
2017-05-24T08:45:35.085Z,26.84
2017-05-24T08:46:45.338Z,26.93
2017-05-24T08:47:55.625Z,26.86
2017-05-24T08:49:05.908Z,26.93
2017-05-24T08:50:16.205Z,26.93
2017-05-24T08:51:26.493Z,26.93
2017-05-24T08:52:37.033Z,26.84
2017-05-24T08:53:47.332Z,27.23
2017-05-24T08:54:56.694Z,27.23
2017-05-24T08:56:06.977Z,26.93
2017-05-24T08:57:17.265Z,26.93
2017-05-24T08:58:27.802Z,26.93
2017-05-24T08:59:38.106Z,26.93
2017-05-24T09:00:48.075Z,26.93
2017-05-24T09:01:58.033Z,26.95
2017-05-24T09:03:07.689Z,27.24
2017-05-24T09:04:17.912Z,27.33
2017-05-24T09:05:27.908Z,27.24
2017-05-24T09:06:38.401Z,27.23
2017-05-24T09:07:48.692Z,27.23
2017-05-24T09:08:58.985Z,27.23
2017-05-24T09:10:08.898Z,27.03
2017-05-24T09:11:18.894Z,27.14
2017-05-24T09:12:29.402Z,26.93
2017-05-24T09:13:39.767Z,26.93
2017-05-24T09:14:50.108Z,26.95
2017-05-24T09:16:00.645Z,26.86
2017-05-24T09:17:10.615Z,26.86
2017-05-24T09:18:20.596Z,26.86
2017-05-24T09:19:30.573Z,26.86
2017-05-24T09:20:40.875Z,26.86
2017-05-24T09:21:51.432Z,26.86
2017-05-24T09:23:01.455Z,26.95
2017-05-24T09:24:11.716Z,26.86
2017-05-24T09:25:22.022Z,26.95
2017-05-24T09:26:32.337Z,26.95
2017-05-24T09:27:42.576Z,27.04
2017-05-24T09:28:52.873Z,26.86
2017-05-24T09:30:02.870Z,26.95
2017-05-24T09:31:12.862Z,26.76
2017-05-24T09:32:22.840Z,26.76
2017-05-24T09:33:33.410Z,26.76
2017-05-24T09:34:44.041Z,26.95
2017-05-24T09:35:54.414Z,27.04
2017-05-24T09:37:04.708Z,26.76
2017-05-24T09:38:15.006Z,26.76
2017-05-24T09:39:25.555Z,26.86
2017-05-24T09:40:35.845Z,26.76
2017-05-24T09:41:46.129Z,26.95
2017-05-24T09:42:56.412Z,26.76
2017-05-24T09:44:06.397Z,26.86
2017-05-24T09:45:16.629Z,26.76
2017-05-24T09:46:26.612Z,26.76
2017-05-24T09:47:36.583Z,26.86
2017-05-24T09:48:46.881Z,26.86
2017-05-24T09:49:56.868Z,26.76
2017-05-24T09:51:07.420Z,26.86
2017-05-24T09:52:17.711Z,26.66
2017-05-24T09:53:27.996Z,26.66
2017-05-24T09:54:38.286Z,26.66
2017-05-24T09:55:48.572Z,26.66
2017-05-24T09:56:59.117Z,26.46
2017-05-24T09:58:09.414Z,26.56
2017-05-24T09:59:20.203Z,26.56
2017-05-24T10:00:30.491Z,26.56
2017-05-24T10:01:41.183Z,26.46
2017-05-24T10:02:51.891Z,26.46
2017-05-24T10:04:01.885Z,26.46
2017-05-24T10:05:12.170Z,26.56
2017-05-24T10:06:22.448Z,26.46
2017-05-24T10:07:32.737Z,26.46
2017-05-24T10:08:43.329Z,26.46
2017-05-24T10:09:53.614Z,26.37
2017-05-24T10:11:03.594Z,26.46
2017-05-24T10:12:13.893Z,26.37
2017-05-24T10:13:23.877Z,26.35
2017-05-24T10:14:34.432Z,26.45
2017-05-24T10:15:44.402Z,26.46
2017-05-24T10:16:54.072Z,26.35
2017-05-24T10:18:04.365Z,26.37
2017-05-24T10:19:14.672Z,26.46
2017-05-24T10:20:25.218Z,26.75
2017-05-24T10:21:35.209Z,26.46
2017-05-24T10:22:45.172Z,26.46
2017-05-24T10:23:55.466Z,26.45
2017-05-24T10:25:04.827Z,26.56
2017-05-24T10:26:15.369Z,26.45
2017-05-24T10:27:25.651Z,26.56
2017-05-24T10:28:35.631Z,26.26
2017-05-24T10:29:45.915Z,26.66
2017-05-24T10:30:56.205Z,26.46
2017-05-24T10:32:06.743Z,26.37
2017-05-24T10:33:17.020Z,26.37
2017-05-24T10:34:27.306Z,26.35
2017-05-24T10:35:37.617Z,26.37
2017-05-24T10:36:47.897Z,26.28
2017-05-24T10:37:57.809Z,26.28
2017-05-24T10:39:07.478Z,26.18
2017-05-24T10:40:17.464Z,26.08
2017-05-24T10:41:27.771Z,26.18
2017-05-24T10:42:37.743Z,26.08
2017-05-24T10:43:48.279Z,26.08
2017-05-24T10:44:58.586Z,25.98
2017-05-24T10:46:08.560Z,25.98
2017-05-24T10:47:19.060Z,25.98
2017-05-24T10:48:29.369Z,25.98
2017-05-24T10:49:39.604Z,25.79
2017-05-24T10:50:49.273Z,25.79
2017-05-24T10:51:59.242Z,25.6
2017-05-24T10:53:09.223Z,25.79
2017-05-24T10:54:19.509Z,25.89
2017-05-24T10:55:30.059Z,25.79
2017-05-24T10:56:40.048Z,25.7
2017-05-24T10:57:50.353Z,25.6
2017-05-24T10:59:00.651Z,25.6
2017-05-24T11:00:10.622Z,25.7
2017-05-24T11:01:21.174Z,25.7
2017-05-24T11:02:31.459Z,25.4
2017-05-24T11:03:41.453Z,25.7
2017-05-24T11:04:51.140Z,25.6
2017-05-24T11:06:01.428Z,25.31
2017-05-24T11:07:11.975Z,25.31
2017-05-24T11:08:21.945Z,25.4
2017-05-24T11:09:31.935Z,25.5
2017-05-24T11:10:41.911Z,25.4
2017-05-24T11:11:52.268Z,25.21
2017-05-24T11:13:02.630Z,25.4
2017-05-24T11:14:12.639Z,25.21
2017-05-24T11:15:22.991Z,25.21
2017-05-24T11:16:33.063Z,25.21
2017-05-24T11:17:43.394Z,25.12
2017-05-24T11:18:53.930Z,25.21
2017-05-24T11:20:03.915Z,25.5
2017-05-24T11:21:14.214Z,25.5
2017-05-24T11:22:24.550Z,25.31
2017-05-24T11:23:34.538Z,25.5
2017-05-24T11:24:45.083Z,25.02
2017-05-24T11:25:55.714Z,24.92
2017-05-24T11:27:05.688Z,25.02
2017-05-24T11:28:15.989Z,25.02
2017-05-24T11:29:26.295Z,25.02
2017-05-24T11:30:36.828Z,24.82
2017-05-24T11:31:46.807Z,24.92
2017-05-24T11:32:56.819Z,24.92
2017-05-24T11:34:07.116Z,24.92
2017-05-24T11:35:17.394Z,25.02
2017-05-24T11:36:27.983Z,25.12
2017-05-24T11:37:37.970Z,25.02
2017-05-24T11:38:48.274Z,24.92
2017-05-24T11:39:58.562Z,25.02
2017-05-24T11:41:08.553Z,25.02
2017-05-24T11:42:19.103Z,24.82
2017-05-24T11:43:29.077Z,24.92
2017-05-24T11:44:39.362Z,24.92
2017-05-24T11:45:49.032Z,25.02
2017-05-24T11:46:59.336Z,24.92
2017-05-24T11:48:09.560Z,24.92
2017-05-24T11:49:19.846Z,24.84
2017-05-24T11:50:30.149Z,25.23
2017-05-24T11:51:39.824Z,25.13
2017-05-24T11:52:49.799Z,25.13
2017-05-24T11:54:00.363Z,25.13
2017-05-24T11:55:10.332Z,25.13
2017-05-24T11:56:20.330Z,25.13
2017-05-24T11:57:30.622Z,24.84
2017-05-24T11:58:40.906Z,25.42
2017-05-24T11:59:51.440Z,25.42
2017-05-24T12:01:01.744Z,25.4
2017-05-24T12:02:11.716Z,25.4
2017-05-24T12:03:22.022Z,25.7
2017-05-24T12:04:32.315Z,25.7
2017-05-24T12:05:42.863Z,25.7
2017-05-24T12:06:53.151Z,25.79
2017-05-24T12:08:03.438Z,25.6
2017-05-24T12:09:13.737Z,25.7
2017-05-24T12:10:23.719Z,25.7
2017-05-24T12:11:34.275Z,25.7
2017-05-24T12:12:44.559Z,25.31
2017-05-24T12:13:54.876Z,25.4
2017-05-24T12:15:05.165Z,25.31
2017-05-24T12:16:15.450Z,25.31
2017-05-24T12:17:26.036Z,25.6
2017-05-24T12:18:36.318Z,25.5
2017-05-24T12:19:46.616Z,25.5
2017-05-24T12:20:56.602Z,25.4
2017-05-24T12:22:06.587Z,25.5
2017-05-24T12:23:16.807Z,25.4
2017-05-24T12:24:27.105Z,25.6
2017-05-24T12:25:37.128Z,25.4
2017-05-24T12:26:47.102Z,25.7
2017-05-24T12:27:57.080Z,25.7
2017-05-24T12:29:07.626Z,25.79
2017-05-24T12:30:17.601Z,25.7
2017-05-24T12:31:27.923Z,25.7
2017-05-24T12:32:37.913Z,25.6
2017-05-24T12:33:48.218Z,25.7
2017-05-24T12:34:58.812Z,25.7
2017-05-24T12:36:09.097Z,25.89
2017-05-24T12:37:19.389Z,25.68
2017-05-24T12:38:29.673Z,25.79
2017-05-24T12:39:39.350Z,25.7
2017-05-24T12:40:49.881Z,25.79
2017-05-24T12:42:00.181Z,25.89
2017-05-24T12:43:10.471Z,25.79
2017-05-24T12:44:20.768Z,25.79
2017-05-24T12:45:31.064Z,25.79
2017-05-24T12:46:41.599Z,25.79
2017-05-24T12:47:51.890Z,25.79
2017-05-24T12:49:02.189Z,25.7
2017-05-24T12:50:12.478Z,25.79
2017-05-24T12:51:22.767Z,26.08
2017-05-24T12:52:33.319Z,26.08
2017-05-24T12:53:43.605Z,25.87
2017-05-24T12:54:53.914Z,26.08
2017-05-24T12:56:04.216Z,25.97
2017-05-24T12:57:14.505Z,25.89
2017-05-24T12:58:24.725Z,25.98
2017-05-24T12:59:35.018Z,25.87
2017-05-24T13:00:45.312Z,25.79
2017-05-24T13:01:55.609Z,25.6
2017-05-24T13:03:05.897Z,25.68
2017-05-24T13:04:16.441Z,25.7
2017-05-24T13:05:26.727Z,25.79
2017-05-24T13:06:37.002Z,25.78
2017-05-24T13:07:46.668Z,25.87
2017-05-24T13:08:56.965Z,25.78
2017-05-24T13:10:07.516Z,25.87
2017-05-24T13:11:17.479Z,26.07
2017-05-24T13:12:27.759Z,25.97
2017-05-24T13:13:38.084Z,26.07
2017-05-24T13:14:48.368Z,26.17
2017-05-24T13:15:58.900Z,26.17
2017-05-24T13:17:09.205Z,26.07
2017-05-24T13:18:19.495Z,26.17
2017-05-24T13:19:29.781Z,26.35
2017-05-24T13:20:40.070Z,26.17
2017-05-24T13:21:50.610Z,26.17
2017-05-24T13:23:00.962Z,26.17
2017-05-24T13:24:11.257Z,26.17
2017-05-24T13:25:21.549Z,26.07
2017-05-24T13:26:31.839Z,26.35
2017-05-24T13:27:42.381Z,26.26
2017-05-24T13:28:52.666Z,26.35
2017-05-24T13:30:02.653Z,26.26
2017-05-24T13:31:12.630Z,26.17
2017-05-24T13:32:22.926Z,26.26
2017-05-24T13:33:33.480Z,26.26
2017-05-24T13:34:43.141Z,26.26
2017-05-24T13:35:53.120Z,26.26
2017-05-24T13:37:03.092Z,26.35
2017-05-24T13:38:13.385Z,26.26
2017-05-24T13:39:24.387Z,26.07
2017-05-24T13:40:34.684Z,26.26
2017-05-24T13:41:44.669Z,26.26
2017-05-24T13:42:54.330Z,26.26
2017-05-24T13:44:04.007Z,26.26
2017-05-24T13:45:14.553Z,26.26
2017-05-24T13:46:24.519Z,26.35
2017-05-24T13:47:34.818Z,26.26
2017-05-24T13:48:45.109Z,26.35
2017-05-24T13:49:55.394Z,26.26
2017-05-24T13:51:05.626Z,26.35
2017-05-24T13:52:15.600Z,26.35
2017-05-24T13:53:25.582Z,26.35
2017-05-24T13:54:35.881Z,26.45
2017-05-24T13:55:46.157Z,26.26
2017-05-24T13:56:56.695Z,26.55
2017-05-24T13:58:06.975Z,26.65
2017-05-24T13:59:17.271Z,26.26
2017-05-24T14:00:27.266Z,26.26
2017-05-24T14:01:37.554Z,26.35
2017-05-24T14:02:48.085Z,26.45
2017-05-24T14:03:58.442Z,26.45
2017-05-24T14:05:08.731Z,26.55
2017-05-24T14:06:18.711Z,26.55
2017-05-24T14:07:28.989Z,26.45
2017-05-24T14:08:39.238Z,26.26
2017-05-24T14:09:49.531Z,26.35
2017-05-24T14:10:59.816Z,26.26
2017-05-24T14:12:09.793Z,26.35
2017-05-24T14:13:20.078Z,26.45
2017-05-24T14:14:30.631Z,26.26
2017-05-24T14:15:40.929Z,26.35
2017-05-24T14:16:50.596Z,26.26
2017-05-24T14:18:00.595Z,26.26
2017-05-24T14:19:10.882Z,26.26
2017-05-24T14:20:21.419Z,26.45
2017-05-24T14:21:31.405Z,26.45
2017-05-24T14:22:41.685Z,26.35
2017-05-24T14:23:51.974Z,26.26
2017-05-24T14:25:02.268Z,26.35
2017-05-24T14:26:12.805Z,26.17
2017-05-24T14:27:23.096Z,26.17
2017-05-24T14:28:32.763Z,26.26
2017-05-24T14:29:43.045Z,26.15
2017-05-24T14:30:53.328Z,26.26
2017-05-24T14:32:03.855Z,26.35
2017-05-24T14:33:13.509Z,26.26
2017-05-24T14:34:23.492Z,26.35
2017-05-24T14:35:33.499Z,26.26
2017-05-24T14:36:43.799Z,26.17
2017-05-24T14:37:54.336Z,26.34
2017-05-24T14:39:04.624Z,26.25
2017-05-24T14:40:14.915Z,26.25
2017-05-24T14:41:24.982Z,26.15
2017-05-24T14:42:34.964Z,26.34
2017-05-24T14:43:45.196Z,26.25
2017-05-24T14:44:55.492Z,26.15
2017-05-24T14:46:05.795Z,26.26
2017-05-24T14:47:16.093Z,26.26
2017-05-24T14:48:26.380Z,26.15
2017-05-24T14:49:36.606Z,26.06
2017-05-24T14:50:46.898Z,26.35
2017-05-24T14:51:57.186Z,26.15
2017-05-24T14:53:06.848Z,26.07
2017-05-24T14:54:17.141Z,26.15
2017-05-24T14:55:27.367Z,26.34
2017-05-24T14:56:37.352Z,26.25
2017-05-24T14:57:47.654Z,26.35
2017-05-24T14:58:57.956Z,26.25
2017-05-24T15:00:08.267Z,26.34
2017-05-24T15:01:18.495Z,26.34
2017-05-24T15:02:28.789Z,26.26
2017-05-24T15:03:39.067Z,26.34
2017-05-24T15:04:49.371Z,26.25
2017-05-24T15:05:59.658Z,26.26
2017-05-24T15:07:10.198Z,26.25